createdAt,value
2022-10-24T00:00:46.669Z,0.29
2022-10-24T00:01:50.004Z,0.00
2022-10-24T00:02:54.581Z,0.00
2022-10-24T00:03:58.171Z,0.00
2022-10-24T00:05:01.497Z,0.00
2022-10-24T00:06:04.999Z,0.00
2022-10-24T00:07:08.891Z,0.00
2022-10-24T00:08:12.093Z,0.00
2022-10-24T00:09:15.658Z,0.43
2022-10-24T00:10:19.353Z,0.00
2022-10-24T00:11:22.773Z,0.00
2022-10-24T00:12:26.429Z,0.43
2022-10-24T00:13:30.025Z,0.00
2022-10-24T00:14:33.614Z,0.00
2022-10-24T00:15:37.015Z,0.57
2022-10-24T00:16:40.185Z,1.57
2022-10-24T00:17:43.314Z,3.00
2022-10-24T00:18:46.655Z,2.00
2022-10-24T00:19:50.653Z,1.50
2022-10-24T00:20:54.046Z,2.29
2022-10-24T00:21:57.861Z,2.75
2022-10-24T00:23:02.734Z,2.86
2022-10-24T00:24:05.652Z,3.50
2022-10-24T00:25:09.012Z,3.00
2022-10-24T00:26:12.844Z,4.43
2022-10-24T00:27:16.204Z,6.29
2022-10-24T00:28:25.172Z,7.14
2022-10-24T00:29:32.424Z,9.00
2022-10-24T00:30:35.787Z,5.75
2022-10-24T00:31:39.162Z,7.57
2022-10-24T00:32:51.564Z,8.17
2022-10-24T00:33:54.653Z,5.50
2022-10-24T00:34:58.240Z,6.57
2022-10-24T00:36:01.752Z,6.86
2022-10-24T00:37:05.540Z,4.43
2022-10-24T00:38:08.931Z,4.00
2022-10-24T00:39:12.392Z,3.57
2022-10-24T00:40:16.805Z,4.71
2022-10-24T00:41:20.399Z,6.75
2022-10-24T00:42:23.787Z,7.43
2022-10-24T00:43:27.068Z,9.50
2022-10-24T00:44:30.561Z,8.00
2022-10-24T00:45:34.363Z,6.43
2022-10-24T00:46:38.461Z,8.50
2022-10-24T00:47:42.828Z,9.88
2022-10-24T00:48:46.453Z,11.50
2022-10-24T00:49:49.953Z,9.86
2022-10-24T00:50:53.734Z,8.00
2022-10-24T00:51:57.138Z,7.86
2022-10-24T00:53:00.731Z,6.57
2022-10-24T00:54:04.539Z,5.00
2022-10-24T00:55:08.016Z,3.00
2022-10-24T00:56:11.729Z,3.29
2022-10-24T00:57:15.801Z,4.71
2022-10-24T00:58:19.321Z,6.86
2022-10-24T00:59:22.986Z,6.50
2022-10-24T01:00:26.993Z,5.43
2022-10-24T01:01:30.458Z,3.87
2022-10-24T01:02:46.582Z,4.50
2022-10-24T01:03:50.159Z,4.50
2022-10-24T01:04:54.052Z,5.00
2022-10-24T01:05:59.662Z,4.25
2022-10-24T01:07:09.770Z,4.00
2022-10-24T01:08:13.122Z,4.00
2022-10-24T01:09:16.522Z,4.33
2022-10-24T01:10:20.409Z,6.14
2022-10-24T01:11:23.727Z,6.29
2022-10-24T01:12:26.986Z,4.67
2022-10-24T01:13:30.651Z,7.50
2022-10-24T01:14:34.158Z,8.29
2022-10-24T01:15:39.905Z,8.57
2022-10-24T01:16:48.824Z,8.25
2022-10-24T01:17:52.182Z,9.50
2022-10-24T01:18:55.468Z,7.14
2022-10-24T01:19:58.675Z,5.57
2022-10-24T01:21:02.265Z,6.57
2022-10-24T01:22:05.346Z,5.29
2022-10-24T01:23:10.272Z,4.00
2022-10-24T01:24:13.748Z,6.87
2022-10-24T01:25:16.729Z,5.71
2022-10-24T01:26:20.222Z,5.00
2022-10-24T01:27:23.706Z,4.75
2022-10-24T01:28:27.204Z,4.86
2022-10-24T01:29:30.890Z,6.00
2022-10-24T01:30:34.171Z,5.50
2022-10-24T01:31:37.559Z,4.71
2022-10-24T01:32:41.491Z,4.71
2022-10-24T01:33:44.636Z,2.37
2022-10-24T01:34:48.552Z,1.43
2022-10-24T01:35:51.620Z,3.43
2022-10-24T01:36:55.000Z,3.00
2022-10-24T01:37:58.165Z,2.57
2022-10-24T01:39:01.372Z,2.83
2022-10-24T01:40:04.745Z,3.43
2022-10-24T01:41:08.241Z,2.86
2022-10-24T01:42:11.835Z,1.00
2022-10-24T01:43:15.333Z,1.86
2022-10-24T01:44:18.612Z,2.29
2022-10-24T01:45:22.331Z,1.57
2022-10-24T01:46:26.102Z,1.71
2022-10-24T01:47:29.553Z,4.75
2022-10-24T01:48:33.081Z,4.57
2022-10-24T01:49:36.773Z,4.87
2022-10-24T01:50:40.119Z,3.71
2022-10-24T01:51:43.441Z,3.57
2022-10-24T01:52:47.442Z,5.00
2022-10-24T01:53:51.034Z,4.00
2022-10-24T01:54:54.517Z,4.57
2022-10-24T01:55:58.126Z,4.29
2022-10-24T01:57:01.203Z,2.57
2022-10-24T01:58:04.573Z,4.33
2022-10-24T01:59:07.972Z,6.14
2022-10-24T02:00:11.318Z,4.14
2022-10-24T02:01:14.923Z,3.71
2022-10-24T02:02:18.452Z,3.86
2022-10-24T02:03:21.904Z,3.43
2022-10-24T02:04:25.515Z,2.29
2022-10-24T02:05:29.102Z,2.62
2022-10-24T02:06:32.821Z,3.86
2022-10-24T02:07:36.185Z,3.71
2022-10-24T02:08:39.675Z,3.43
2022-10-24T02:09:43.265Z,3.71
2022-10-24T02:10:46.844Z,2.37
2022-10-24T02:11:50.587Z,2.29
2022-10-24T02:12:54.050Z,3.50
2022-10-24T02:13:57.424Z,3.57
2022-10-24T02:15:00.634Z,3.00
2022-10-24T02:16:03.792Z,2.67
2022-10-24T02:17:08.267Z,2.00
2022-10-24T02:18:11.695Z,4.75
2022-10-24T02:19:15.179Z,3.29
2022-10-24T02:20:18.771Z,2.00
2022-10-24T02:21:21.943Z,2.86
2022-10-24T02:22:25.300Z,3.14
2022-10-24T02:23:28.619Z,2.71
2022-10-24T02:24:32.113Z,3.14
2022-10-24T02:25:35.355Z,3.57
2022-10-24T02:26:38.573Z,2.43
2022-10-24T02:27:42.188Z,1.71
2022-10-24T02:28:45.654Z,3.37
2022-10-24T02:29:48.935Z,4.14
2022-10-24T02:30:52.119Z,3.00
2022-10-24T02:31:55.304Z,3.43
2022-10-24T02:32:58.694Z,4.00
2022-10-24T02:34:02.027Z,4.29
2022-10-24T02:35:05.493Z,3.14
2022-10-24T02:36:09.259Z,2.71
2022-10-24T02:37:12.980Z,4.00
2022-10-24T02:38:16.850Z,4.14
2022-10-24T02:39:20.445Z,3.50
2022-10-24T02:40:23.955Z,3.50
2022-10-24T02:41:27.486Z,3.86
2022-10-24T02:42:31.333Z,3.86
2022-10-24T02:43:34.505Z,3.71
2022-10-24T02:44:37.856Z,5.00
2022-10-24T02:45:41.271Z,5.00
2022-10-24T02:46:44.679Z,3.86
2022-10-24T02:47:47.974Z,2.86
2022-10-24T02:48:51.810Z,5.14
2022-10-24T02:49:54.821Z,4.75
2022-10-24T02:50:58.027Z,2.67
2022-10-24T02:52:01.290Z,4.29
2022-10-24T02:53:04.574Z,5.14
2022-10-24T02:54:07.932Z,5.43
2022-10-24T02:55:11.561Z,5.57
2022-10-24T02:56:14.908Z,4.12
2022-10-24T02:57:18.631Z,3.86
2022-10-24T02:58:22.322Z,4.00
2022-10-24T02:59:27.352Z,3.14
2022-10-24T03:00:30.805Z,1.12
2022-10-24T03:01:34.297Z,1.86
2022-10-24T03:02:38.532Z,3.00
2022-10-24T03:03:41.896Z,3.00
2022-10-24T03:04:45.200Z,3.43
2022-10-24T03:05:48.492Z,4.14
2022-10-24T03:06:51.773Z,4.86
2022-10-24T03:07:54.949Z,3.86
2022-10-24T03:08:58.342Z,3.43
2022-10-24T03:10:01.711Z,5.00
2022-10-24T03:11:04.709Z,5.00
2022-10-24T03:12:08.195Z,3.83
2022-10-24T03:13:11.372Z,3.71
2022-10-24T03:14:15.373Z,4.57
2022-10-24T03:15:19.097Z,4.75
2022-10-24T03:16:22.553Z,4.57
2022-10-24T03:17:25.843Z,4.71
2022-10-24T03:18:29.235Z,6.29
2022-10-24T03:19:32.624Z,7.43
2022-10-24T03:20:36.511Z,6.14
2022-10-24T03:21:39.902Z,6.50
2022-10-24T03:22:43.291Z,5.86
2022-10-24T03:23:46.345Z,6.57
2022-10-24T03:24:55.988Z,5.71
2022-10-24T03:25:53.969Z,7.00
2022-10-24T03:26:57.240Z,8.43
2022-10-24T03:28:00.429Z,8.14
2022-10-24T03:29:03.810Z,7.33
2022-10-24T03:30:07.525Z,6.71
2022-10-24T03:31:10.793Z,6.43
2022-10-24T03:32:14.124Z,8.29
2022-10-24T03:33:17.470Z,7.71
2022-10-24T03:34:20.752Z,4.86
2022-10-24T03:35:24.234Z,5.29
2022-10-24T03:36:27.390Z,5.29
2022-10-24T03:37:30.618Z,5.29
2022-10-24T03:38:33.984Z,4.57
2022-10-24T03:39:37.267Z,4.00
2022-10-24T03:40:40.503Z,4.57
2022-10-24T03:41:43.831Z,3.86
2022-10-24T03:42:47.598Z,3.57
2022-10-24T03:43:51.012Z,3.75
2022-10-24T03:44:54.167Z,3.14
2022-10-24T03:45:57.250Z,3.00
2022-10-24T03:47:00.564Z,3.00
2022-10-24T03:48:03.623Z,2.67
2022-10-24T03:49:06.725Z,2.67
2022-10-24T03:50:10.013Z,3.86
2022-10-24T03:51:13.064Z,4.14
2022-10-24T03:52:16.650Z,3.29
2022-10-24T03:53:19.762Z,2.57
2022-10-24T03:54:23.152Z,2.29
2022-10-24T03:55:26.528Z,3.43
2022-10-24T03:56:29.920Z,3.00
2022-10-24T03:57:33.446Z,2.57
2022-10-24T03:58:36.586Z,2.57
2022-10-24T03:59:40.176Z,4.67
2022-10-24T04:00:43.624Z,5.50
2022-10-24T04:01:46.783Z,3.00
2022-10-24T04:02:50.452Z,3.14
2022-10-24T04:03:53.520Z,2.57
2022-10-24T04:04:56.502Z,2.86
2022-10-24T04:05:59.478Z,4.29
2022-10-24T04:07:02.579Z,4.00
2022-10-24T04:08:05.951Z,5.00
2022-10-24T04:09:09.132Z,4.25
2022-10-24T04:10:12.611Z,3.00
2022-10-24T04:11:16.105Z,3.57
2022-10-24T04:12:19.596Z,4.00
2022-10-24T04:13:23.362Z,4.00
2022-10-24T04:14:26.570Z,4.43
2022-10-24T04:15:30.267Z,4.43
2022-10-24T04:16:33.648Z,4.00
2022-10-24T04:17:36.841Z,5.57
2022-10-24T04:18:40.325Z,3.71
2022-10-24T04:19:43.777Z,3.00
2022-10-24T04:20:47.300Z,3.43
2022-10-24T04:21:50.585Z,3.14
2022-10-24T04:22:53.930Z,3.71
2022-10-24T04:23:57.161Z,4.00
2022-10-24T04:25:00.360Z,4.00
2022-10-24T04:26:03.929Z,4.86
2022-10-24T04:27:07.211Z,4.29
2022-10-24T04:28:10.495Z,2.67
2022-10-24T04:29:13.780Z,4.67
2022-10-24T04:30:17.261Z,5.43
2022-10-24T04:31:23.385Z,5.29
2022-10-24T04:32:25.270Z,4.50
2022-10-24T04:33:28.756Z,4.71
2022-10-24T04:34:32.062Z,4.57
2022-10-24T04:35:35.635Z,3.14
2022-10-24T04:36:39.021Z,4.14
2022-10-24T04:37:42.303Z,3.00
2022-10-24T04:38:45.804Z,4.86
2022-10-24T04:39:49.081Z,5.00
2022-10-24T04:40:52.669Z,4.29
2022-10-24T04:41:55.753Z,4.57
2022-10-24T04:42:58.825Z,5.00
2022-10-24T04:44:02.108Z,6.43
2022-10-24T04:45:05.913Z,6.43
2022-10-24T04:46:08.879Z,6.43
2022-10-24T04:47:12.395Z,5.86
2022-10-24T04:48:15.870Z,4.14
2022-10-24T04:49:19.353Z,4.43
2022-10-24T04:50:22.946Z,5.50
2022-10-24T04:51:26.235Z,5.29
2022-10-24T04:52:29.312Z,5.71
2022-10-24T04:53:32.795Z,5.57
2022-10-24T04:54:36.080Z,3.71
2022-10-24T04:55:39.778Z,3.57
2022-10-24T04:56:43.159Z,2.62
2022-10-24T04:57:47.154Z,3.00
2022-10-24T04:58:51.060Z,3.00
2022-10-24T04:59:54.128Z,2.75
2022-10-24T05:00:57.814Z,5.00
2022-10-24T05:02:01.091Z,5.00
2022-10-24T05:03:04.387Z,4.29
2022-10-24T05:04:07.705Z,5.86
2022-10-24T05:05:11.069Z,5.57
2022-10-24T05:06:14.250Z,2.71
2022-10-24T05:07:17.646Z,3.57
2022-10-24T05:08:20.840Z,5.29
2022-10-24T05:09:23.968Z,4.33
2022-10-24T05:10:27.367Z,3.67
2022-10-24T05:11:31.016Z,3.43
2022-10-24T05:12:34.574Z,3.57
2022-10-24T05:13:37.855Z,4.00
2022-10-24T05:14:41.249Z,5.00
2022-10-24T05:15:44.839Z,5.00
2022-10-24T05:16:47.910Z,2.57
2022-10-24T05:17:51.092Z,3.00
2022-10-24T05:18:54.377Z,2.57
2022-10-24T05:19:57.521Z,3.57
2022-10-24T05:21:01.159Z,4.00
2022-10-24T05:22:06.056Z,2.25
2022-10-24T05:23:09.055Z,2.37
2022-10-24T05:24:12.538Z,2.43
2022-10-24T05:25:15.954Z,2.00
2022-10-24T05:26:19.031Z,3.86
2022-10-24T05:27:22.511Z,3.67
2022-10-24T05:28:25.913Z,3.00
2022-10-24T05:29:29.282Z,3.57
2022-10-24T05:30:32.666Z,3.43
2022-10-24T05:31:36.274Z,4.29
2022-10-24T05:32:39.845Z,3.57
2022-10-24T05:33:43.330Z,3.29
2022-10-24T05:34:46.822Z,3.86
2022-10-24T05:35:50.108Z,3.71
2022-10-24T05:36:54.004Z,3.14
2022-10-24T05:37:57.182Z,2.75
2022-10-24T05:39:00.572Z,3.00
2022-10-24T05:40:03.750Z,2.00
2022-10-24T05:41:07.235Z,2.86
2022-10-24T05:42:10.520Z,4.00
2022-10-24T05:43:14.114Z,3.57
2022-10-24T05:44:17.643Z,2.57
2022-10-24T05:45:20.786Z,2.43
2022-10-24T05:46:24.279Z,2.86
2022-10-24T05:47:29.202Z,3.43
2022-10-24T05:48:32.076Z,2.75
2022-10-24T05:49:35.472Z,1.57
2022-10-24T05:50:38.682Z,1.86
2022-10-24T05:51:41.968Z,2.67
2022-10-24T05:52:47.244Z,2.00
2022-10-24T05:53:50.253Z,1.50
2022-10-24T05:55:06.885Z,1.50
2022-10-24T05:55:58.646Z,1.50
2022-10-24T05:57:01.926Z,1.00
2022-10-24T05:58:05.076Z,0.86
2022-10-24T05:59:08.402Z,2.00
2022-10-24T06:00:11.985Z,2.00
2022-10-24T06:01:15.444Z,1.00
2022-10-24T06:02:18.776Z,2.00
2022-10-24T06:03:22.160Z,1.14
2022-10-24T06:04:25.739Z,1.86
2022-10-24T06:05:29.153Z,2.50
2022-10-24T06:06:32.512Z,2.29
2022-10-24T06:07:35.692Z,1.43
2022-10-24T06:08:39.156Z,1.43
2022-10-24T06:09:42.713Z,0.57
2022-10-24T06:10:45.925Z,0.57
2022-10-24T06:11:49.142Z,1.29
2022-10-24T06:12:52.634Z,1.14
2022-10-24T06:13:55.811Z,0.43
2022-10-24T06:14:59.296Z,1.57
2022-10-24T06:16:02.785Z,1.75
2022-10-24T06:17:06.291Z,1.00
2022-10-24T06:18:09.446Z,1.43
2022-10-24T06:19:12.746Z,2.86
2022-10-24T06:20:16.556Z,4.00
2022-10-24T06:21:20.228Z,3.14
2022-10-24T06:22:23.721Z,2.43
2022-10-24T06:23:27.724Z,3.29
2022-10-24T06:24:31.828Z,4.00
2022-10-24T06:25:35.819Z,4.50
2022-10-24T06:26:39.319Z,4.12
2022-10-24T06:27:43.119Z,3.29
2022-10-24T06:28:46.805Z,3.29
2022-10-24T06:29:51.526Z,4.50
2022-10-24T06:30:55.116Z,3.87
2022-10-24T06:32:04.447Z,4.43
2022-10-24T06:33:08.136Z,4.00
2022-10-24T06:34:11.895Z,3.50
2022-10-24T06:35:15.956Z,5.00
2022-10-24T06:36:20.114Z,4.14
2022-10-24T06:37:23.624Z,3.75
2022-10-24T06:38:27.113Z,5.29
2022-10-24T06:39:31.335Z,5.50
2022-10-24T06:40:35.160Z,3.00
2022-10-24T06:41:39.120Z,4.37
2022-10-24T06:42:42.615Z,6.00
2022-10-24T06:43:46.308Z,4.14
2022-10-24T06:44:50.148Z,2.87
2022-10-24T06:45:53.385Z,3.00
2022-10-24T06:46:57.276Z,2.86
2022-10-24T06:48:00.870Z,3.43
2022-10-24T06:49:04.565Z,3.00
2022-10-24T06:50:07.884Z,2.86
2022-10-24T06:51:11.235Z,3.00
2022-10-24T06:52:14.616Z,3.14
2022-10-24T06:53:18.049Z,4.14
2022-10-24T06:54:22.437Z,4.00
2022-10-24T06:55:27.146Z,4.00
2022-10-24T06:56:30.835Z,3.67
2022-10-24T06:57:34.526Z,2.86
2022-10-24T06:58:37.710Z,2.00
2022-10-24T06:59:41.097Z,4.00
2022-10-24T07:00:44.754Z,3.33
2022-10-24T07:01:48.257Z,1.14
2022-10-24T07:02:51.973Z,2.57
2022-10-24T07:03:55.467Z,3.86
2022-10-24T07:04:59.048Z,2.71
2022-10-24T07:06:02.646Z,2.50
2022-10-24T07:07:06.132Z,3.14
2022-10-24T07:08:10.472Z,3.29
2022-10-24T07:09:15.612Z,2.62
2022-10-24T07:10:19.164Z,2.50
2022-10-24T07:11:22.748Z,3.43
2022-10-24T07:12:26.468Z,2.57
2022-10-24T07:13:29.798Z,2.29
2022-10-24T07:14:33.520Z,3.14
2022-10-24T07:15:37.218Z,2.00
2022-10-24T07:16:40.919Z,2.50
2022-10-24T07:17:44.505Z,3.14
2022-10-24T07:18:48.298Z,2.25
2022-10-24T07:19:51.837Z,2.43
2022-10-24T07:20:55.489Z,3.00
2022-10-24T07:21:59.183Z,3.14
2022-10-24T07:23:02.767Z,2.25
2022-10-24T07:24:06.559Z,3.14
2022-10-24T07:25:10.055Z,3.50
2022-10-24T07:26:13.644Z,3.29
2022-10-24T07:27:17.650Z,1.71
2022-10-24T07:28:21.240Z,3.29
2022-10-24T07:29:24.825Z,4.00
2022-10-24T07:30:28.931Z,2.57
2022-10-24T07:31:32.545Z,3.00
2022-10-24T07:32:36.017Z,2.50
2022-10-24T07:33:39.392Z,1.57
2022-10-24T07:34:42.784Z,1.71
2022-10-24T07:35:46.477Z,2.86
2022-10-24T07:36:49.762Z,3.37
2022-10-24T07:37:52.842Z,3.00
2022-10-24T07:38:56.134Z,4.33
2022-10-24T07:39:59.509Z,2.00
2022-10-24T07:41:03.353Z,3.00
2022-10-24T07:42:06.803Z,4.57
2022-10-24T07:43:10.293Z,5.29
2022-10-24T07:44:15.003Z,6.29
2022-10-24T07:45:18.897Z,5.87
2022-10-24T07:46:22.499Z,6.71
2022-10-24T07:47:26.184Z,4.86
2022-10-24T07:48:30.093Z,2.62
2022-10-24T07:49:33.830Z,3.43
2022-10-24T07:50:37.478Z,3.75
2022-10-24T07:51:40.968Z,1.57
2022-10-24T07:52:44.454Z,3.00
2022-10-24T07:53:47.941Z,5.14
2022-10-24T07:54:51.532Z,4.71
2022-10-24T07:55:54.796Z,3.00
2022-10-24T07:56:58.319Z,3.33
2022-10-24T07:58:01.495Z,5.43
2022-10-24T07:59:09.037Z,5.57
2022-10-24T08:00:09.088Z,3.00
2022-10-24T08:01:12.410Z,2.43
2022-10-24T08:02:15.887Z,2.57
2022-10-24T08:03:19.548Z,2.57
2022-10-24T08:04:22.935Z,2.50
2022-10-24T08:05:26.529Z,3.57
2022-10-24T08:06:30.420Z,3.25
2022-10-24T08:07:33.911Z,2.57
2022-10-24T08:08:38.166Z,2.86
2022-10-24T08:09:42.115Z,5.00
2022-10-24T08:10:45.636Z,4.71
2022-10-24T08:11:49.197Z,3.00
2022-10-24T08:12:52.791Z,2.43
2022-10-24T08:13:55.975Z,4.14
2022-10-24T08:14:59.482Z,6.67
2022-10-24T08:16:02.856Z,4.43
2022-10-24T08:17:06.102Z,3.71
2022-10-24T08:18:09.075Z,4.57
2022-10-24T08:19:12.349Z,4.50
2022-10-24T08:20:15.785Z,3.67
2022-10-24T08:21:22.247Z,4.29
2022-10-24T08:22:25.632Z,3.00
2022-10-24T08:23:29.219Z,3.71
2022-10-24T08:24:32.637Z,4.86
2022-10-24T08:25:36.089Z,3.86
2022-10-24T08:26:42.354Z,1.86
2022-10-24T08:27:46.040Z,2.50
2022-10-24T08:28:49.410Z,3.00
2022-10-24T08:29:53.014Z,4.71
2022-10-24T08:30:56.492Z,5.00
2022-10-24T08:31:59.714Z,3.14
2022-10-24T08:33:02.876Z,3.00
2022-10-24T08:34:06.056Z,3.71
2022-10-24T08:35:09.555Z,4.00
2022-10-24T08:36:12.725Z,3.14
2022-10-24T08:37:16.417Z,2.00
2022-10-24T08:38:19.804Z,2.00
2022-10-24T08:39:23.091Z,3.14
2022-10-24T08:40:26.481Z,3.57
2022-10-24T08:41:29.658Z,2.57
2022-10-24T08:42:32.939Z,2.43
2022-10-24T08:43:36.132Z,3.57
2022-10-24T08:44:39.403Z,4.14
2022-10-24T08:45:42.798Z,2.14
2022-10-24T08:46:45.877Z,2.29
2022-10-24T08:47:48.852Z,2.57
2022-10-24T08:48:52.620Z,1.86
2022-10-24T08:49:55.596Z,2.57
2022-10-24T08:50:59.019Z,2.00
2022-10-24T08:52:02.060Z,1.57
2022-10-24T08:53:05.068Z,2.86
2022-10-24T08:54:08.452Z,3.17
2022-10-24T08:55:25.231Z,2.86
2022-10-24T08:56:16.663Z,3.00
2022-10-24T08:57:20.148Z,2.50
2022-10-24T08:58:23.537Z,3.43
2022-10-24T08:59:27.059Z,3.14
2022-10-24T09:00:30.517Z,1.86
2022-10-24T09:01:34.326Z,2.43
2022-10-24T09:02:38.102Z,3.57
2022-10-24T09:03:55.561Z,3.50
2022-10-24T09:04:46.083Z,1.75
2022-10-24T09:05:49.524Z,1.87
2022-10-24T09:06:52.991Z,1.29
2022-10-24T09:07:56.195Z,2.71
2022-10-24T09:08:59.658Z,3.43
2022-10-24T09:10:02.962Z,1.57
2022-10-24T09:11:06.009Z,1.43
2022-10-24T09:12:09.115Z,2.00
2022-10-24T09:13:12.585Z,1.71
2022-10-24T09:14:15.980Z,2.86
2022-10-24T09:15:19.671Z,3.14
2022-10-24T09:16:23.063Z,1.75
2022-10-24T09:17:26.355Z,1.86
2022-10-24T09:18:29.665Z,3.14
2022-10-24T09:19:33.113Z,4.43
2022-10-24T09:20:36.928Z,3.71
2022-10-24T09:21:40.508Z,2.43
2022-10-24T09:22:44.365Z,4.37
2022-10-24T09:23:47.786Z,5.14
2022-10-24T09:24:51.323Z,3.57
2022-10-24T09:25:54.551Z,3.43
2022-10-24T09:26:57.943Z,2.71
2022-10-24T09:28:01.018Z,2.29
2022-10-24T09:29:04.724Z,3.14
2022-10-24T09:30:08.108Z,2.00
2022-10-24T09:31:11.496Z,2.14
2022-10-24T09:32:14.673Z,2.00
2022-10-24T09:33:18.264Z,2.00
2022-10-24T09:34:21.550Z,1.57
2022-10-24T09:35:24.940Z,1.86
2022-10-24T09:36:28.374Z,2.57
2022-10-24T09:37:35.155Z,2.29
2022-10-24T09:38:36.543Z,2.62
2022-10-24T09:39:40.131Z,2.71
2022-10-24T09:40:43.618Z,3.00
2022-10-24T09:41:47.621Z,2.57
2022-10-24T09:42:51.196Z,2.25
2022-10-24T09:43:54.704Z,1.57
2022-10-24T09:44:58.488Z,1.86
2022-10-24T09:46:01.873Z,2.71
2022-10-24T09:47:05.304Z,2.00
2022-10-24T09:48:08.546Z,2.00
2022-10-24T09:49:11.843Z,2.67
2022-10-24T09:50:15.024Z,3.83
2022-10-24T09:51:18.403Z,3.50
2022-10-24T09:52:22.007Z,2.86
2022-10-24T09:53:25.421Z,3.71
2022-10-24T09:54:28.714Z,4.86
2022-10-24T09:55:32.246Z,4.57
2022-10-24T09:56:35.943Z,4.86
2022-10-24T09:57:39.533Z,4.71
2022-10-24T09:58:43.025Z,3.00
2022-10-24T09:59:46.425Z,3.00
2022-10-24T10:00:50.239Z,2.57
2022-10-24T10:01:53.594Z,1.00
2022-10-24T10:02:57.363Z,2.00
2022-10-24T10:04:01.264Z,3.29
2022-10-24T10:05:05.304Z,4.37
2022-10-24T10:06:08.475Z,3.14
2022-10-24T10:07:11.755Z,2.71
2022-10-24T10:08:15.254Z,3.14
2022-10-24T10:09:18.734Z,3.29
2022-10-24T10:10:22.530Z,4.14
2022-10-24T10:11:26.027Z,2.14
2022-10-24T10:12:29.553Z,2.00
2022-10-24T10:13:33.137Z,1.57
2022-10-24T10:14:36.482Z,2.43
2022-10-24T10:15:40.187Z,3.00
2022-10-24T10:16:44.728Z,3.00
2022-10-24T10:17:48.100Z,3.50
2022-10-24T10:18:51.468Z,2.57
2022-10-24T10:19:54.757Z,2.00
2022-10-24T10:20:58.034Z,3.33
2022-10-24T10:22:01.135Z,3.14
2022-10-24T10:23:04.200Z,2.33
2022-10-24T10:24:07.373Z,3.43
2022-10-24T10:25:10.706Z,4.00
2022-10-24T10:26:13.819Z,2.86
2022-10-24T10:27:16.824Z,4.33
2022-10-24T10:28:20.208Z,5.43
2022-10-24T10:29:23.901Z,4.43
2022-10-24T10:30:27.496Z,4.12
2022-10-24T10:31:30.781Z,3.29
2022-10-24T10:32:34.478Z,3.29
2022-10-24T10:34:40.591Z,3.33
2022-10-24T10:35:44.123Z,4.14
2022-10-24T10:36:47.400Z,6.29
2022-10-24T10:37:51.020Z,5.33
2022-10-24T10:38:54.693Z,4.00
2022-10-24T10:39:57.972Z,6.71
2022-10-24T10:41:01.443Z,6.71
2022-10-24T10:42:04.542Z,4.43
2022-10-24T10:43:07.825Z,4.00
2022-10-24T10:44:11.113Z,5.00
2022-10-24T10:45:14.414Z,5.33
2022-10-24T10:46:18.100Z,4.57
2022-10-24T10:47:23.906Z,4.57
2022-10-24T10:48:26.606Z,5.25
2022-10-24T10:49:29.882Z,4.86
2022-10-24T10:50:33.696Z,5.43
2022-10-24T10:51:37.364Z,5.86
2022-10-24T10:52:40.760Z,6.75
2022-10-24T10:53:44.260Z,5.14
2022-10-24T10:54:47.650Z,4.00
2022-10-24T10:55:51.430Z,4.00
2022-10-24T10:56:55.027Z,3.12
2022-10-24T10:57:58.436Z,3.00
2022-10-24T10:59:01.901Z,3.14
2022-10-24T11:00:05.239Z,2.50
2022-10-24T11:01:08.939Z,2.57
2022-10-24T11:02:12.245Z,2.43
2022-10-24T11:03:15.582Z,3.00
2022-10-24T11:04:19.143Z,3.43
2022-10-24T11:05:22.421Z,3.86
2022-10-24T11:06:25.959Z,3.43
2022-10-24T11:07:29.505Z,3.14
2022-10-24T11:08:33.605Z,2.57
2022-10-24T11:09:37.209Z,2.57
2022-10-24T11:10:40.798Z,1.29
2022-10-24T11:11:44.491Z,1.00
2022-10-24T11:12:48.183Z,1.43
2022-10-24T11:13:51.771Z,2.86
2022-10-24T11:14:55.211Z,4.25
2022-10-24T11:15:58.931Z,4.71
2022-10-24T11:17:02.852Z,5.00
2022-10-24T11:18:06.140Z,4.00
2022-10-24T11:19:09.749Z,5.00
2022-10-24T11:20:13.934Z,4.62
2022-10-24T11:21:17.325Z,5.50
2022-10-24T11:22:20.817Z,5.57
2022-10-24T11:23:24.403Z,5.14
2022-10-24T11:24:28.101Z,5.00
2022-10-24T11:25:31.603Z,4.57
2022-10-24T11:26:35.045Z,5.00
2022-10-24T11:27:38.615Z,4.14
2022-10-24T11:28:42.051Z,4.29
2022-10-24T11:29:45.470Z,5.71
2022-10-24T11:30:48.921Z,6.57
2022-10-24T11:31:52.583Z,6.57
2022-10-24T11:32:56.309Z,5.57
2022-10-24T11:33:59.501Z,4.86
2022-10-24T11:35:03.388Z,5.00
2022-10-24T11:36:06.686Z,6.14
2022-10-24T11:37:10.283Z,5.57
2022-10-24T11:38:14.095Z,6.14
2022-10-24T11:39:20.528Z,3.86
2022-10-24T11:40:24.147Z,4.00
2022-10-24T11:41:27.837Z,5.00
2022-10-24T11:42:31.816Z,4.57
2022-10-24T11:43:35.820Z,4.25
2022-10-24T11:44:40.119Z,5.00
2022-10-24T11:45:43.719Z,5.75
2022-10-24T11:46:47.612Z,6.00
2022-10-24T11:47:51.009Z,5.50
2022-10-24T11:48:55.428Z,4.86
2022-10-24T11:49:58.689Z,5.25
2022-10-24T11:51:02.794Z,6.00
2022-10-24T11:52:06.184Z,5.62
2022-10-24T11:53:09.890Z,4.43
2022-10-24T11:54:13.375Z,5.00
2022-10-24T11:55:16.652Z,5.00
2022-10-24T11:56:23.672Z,5.86
2022-10-24T11:57:25.189Z,6.00
2022-10-24T11:58:29.163Z,4.57
2022-10-24T11:59:32.866Z,4.00
2022-10-24T12:00:36.452Z,4.00
2022-10-24T12:01:39.676Z,3.57
2022-10-24T12:02:42.749Z,3.86
2022-10-24T12:03:46.159Z,5.33
2022-10-24T12:04:49.488Z,6.00
2022-10-24T12:05:53.144Z,4.71
2022-10-24T12:06:56.158Z,3.86
2022-10-24T12:07:59.444Z,6.33
2022-10-24T12:09:02.734Z,9.00
2022-10-24T12:10:06.011Z,7.43
2022-10-24T12:11:09.437Z,6.86
2022-10-24T12:12:13.290Z,8.43
2022-10-24T12:13:16.490Z,9.43
2022-10-24T12:14:19.865Z,10.43
2022-10-24T12:15:23.353Z,10.86
2022-10-24T12:16:27.113Z,12.14
2022-10-24T12:17:30.540Z,11.71
2022-10-24T12:18:34.133Z,10.86
2022-10-24T12:19:37.509Z,11.29
2022-10-24T12:20:41.091Z,11.14
2022-10-24T12:21:44.391Z,12.43
2022-10-24T12:22:48.125Z,12.71
2022-10-24T12:23:51.702Z,11.86
2022-10-24T12:24:55.982Z,10.14
2022-10-24T12:25:59.474Z,9.50
2022-10-24T12:27:03.069Z,10.00
2022-10-24T12:28:06.524Z,10.14
2022-10-24T12:29:10.241Z,10.29
2022-10-24T12:30:13.544Z,11.00
2022-10-24T12:31:17.606Z,9.43
2022-10-24T12:32:21.388Z,9.50
2022-10-24T12:33:25.020Z,8.00
2022-10-24T12:34:28.719Z,6.57
2022-10-24T12:35:32.846Z,6.50
2022-10-24T12:36:36.180Z,6.57
2022-10-24T12:37:42.137Z,4.57
2022-10-24T12:38:44.218Z,4.62
2022-10-24T12:39:47.956Z,5.57
2022-10-24T12:40:51.875Z,4.57
2022-10-24T12:41:55.791Z,4.00
2022-10-24T12:42:59.190Z,3.57
2022-10-24T12:44:02.231Z,3.83
2022-10-24T12:45:06.241Z,5.50
2022-10-24T12:46:13.116Z,4.62
2022-10-24T12:47:13.967Z,4.87
2022-10-24T12:48:17.362Z,4.00
2022-10-24T12:49:23.147Z,4.43
2022-10-24T12:50:25.451Z,5.37
2022-10-24T12:51:29.556Z,4.37
2022-10-24T12:52:33.141Z,4.12
2022-10-24T12:53:36.890Z,4.00
2022-10-24T12:54:40.737Z,4.00
2022-10-24T12:55:44.548Z,4.43
2022-10-24T12:56:48.635Z,5.00
2022-10-24T12:57:52.235Z,4.50
2022-10-24T12:58:56.097Z,4.57
2022-10-24T12:59:59.844Z,4.00
2022-10-24T13:01:03.271Z,4.86
2022-10-24T13:02:06.500Z,5.57
2022-10-24T13:03:09.863Z,5.43
2022-10-24T13:04:13.174Z,5.00
2022-10-24T13:05:17.062Z,5.43
2022-10-24T13:07:39.704Z,7.75
2022-10-24T13:08:43.610Z,6.00
2022-10-24T13:09:47.105Z,6.43
2022-10-24T13:10:50.798Z,6.50
2022-10-24T13:11:54.700Z,5.14
2022-10-24T13:12:58.499Z,4.50
2022-10-24T13:14:01.776Z,5.86
2022-10-24T13:15:05.561Z,5.71
2022-10-24T13:16:08.854Z,7.00
2022-10-24T13:17:12.080Z,6.57
2022-10-24T13:18:15.807Z,7.29
2022-10-24T13:19:19.014Z,7.86
2022-10-24T13:20:22.918Z,6.71
2022-10-24T13:21:26.570Z,6.71
2022-10-24T13:22:30.411Z,8.14
2022-10-24T13:23:34.099Z,7.86
2022-10-24T13:24:37.391Z,7.71
2022-10-24T13:25:40.569Z,5.57
2022-10-24T13:26:44.080Z,5.43
2022-10-24T13:27:47.940Z,6.43
2022-10-24T13:28:51.547Z,5.87
2022-10-24T13:30:58.526Z,7.33
2022-10-24T13:32:02.091Z,7.29
2022-10-24T13:33:06.017Z,6.14
2022-10-24T13:34:09.407Z,7.00
2022-10-24T13:35:12.789Z,8.43
2022-10-24T13:36:15.882Z,8.57
2022-10-24T13:37:18.944Z,9.50
2022-10-24T13:38:22.840Z,8.00
2022-10-24T13:39:26.823Z,8.50
2022-10-24T13:40:30.649Z,8.13
2022-10-24T13:41:34.028Z,8.14
2022-10-24T13:42:40.047Z,9.43
2022-10-24T13:43:42.230Z,10.50
2022-10-24T13:44:45.915Z,11.67
2022-10-24T13:45:49.315Z,13.50
2022-10-24T13:46:54.537Z,15.86
2022-10-24T13:47:57.517Z,18.62
2022-10-24T13:49:01.298Z,17.57
2022-10-24T13:50:05.145Z,16.71
2022-10-24T13:51:08.627Z,16.12
2022-10-24T13:52:12.221Z,16.20
2022-10-24T13:53:15.470Z,15.43
2022-10-24T13:54:18.452Z,14.67
2022-10-24T13:55:21.853Z,14.00
2022-10-24T13:56:25.027Z,15.43
2022-10-24T13:57:28.561Z,17.43
2022-10-24T13:58:35.939Z,17.29
2022-10-24T13:59:36.221Z,18.62
2022-10-24T14:00:39.686Z,20.00
2022-10-24T14:01:42.892Z,22.00
2022-10-24T14:02:46.359Z,24.00
2022-10-24T14:03:49.876Z,24.37
2022-10-24T14:04:56.121Z,23.57
2022-10-24T14:05:57.453Z,24.00
2022-10-24T14:07:00.732Z,21.43
2022-10-24T14:08:03.908Z,19.29
2022-10-24T14:09:07.519Z,17.14